Carnival Conquest — 3FPQ9 — position and weather

sailwx.info

Track history (hours):
 
Tides and Currents Weather Stations Pressure Air Temp Water Temp Dewpoint Dewpoint Depression Visibility Wind Speed Wind Dir Waves Ship Positions

Carnival Conquest

Operator: Carnival Cruise Lines

Last reported at 2017-Nov-21 01:00 UTC. Time now 2017-Nov-23 00:22 UTC.
Position N 21°00' W 074°48'.

Type: Passenger vessel. MMSI: 357657000.

Wind from 050 at 24 knots

Barometer 1012.0 mb
Air temperature 27.0 ° C
Visibility: greater than 10.8 NM
Dewpoint 20.0 ° C
Water temperature 30.0 ° C

Date/timePositionNaut miles runAvg speedWind from/ knotsBaromVisibWave heightAir tempDewpointWater temp
2017-Nov-21 01:00N 21°00' W 074°48'22217.1 050 / 241012.010.8 27.020.030.0
2017-Nov-20 12:00N 22°36' W 078°24'18816.1 350 / 231014.010.8 24.013.030.0
2017-Nov-20 00:22N 25°30' W 079°40'617.5
2017-Nov-20 00:00N 25°36' W 079°42'917.4
2017-Nov-19 23:30N 25°44' W 079°47'917.7
2017-Nov-19 23:01N 25°51' W 079°53'816.8
2017-Nov-19 22:31N 25°58' W 079°57'815.9
2017-Nov-19 22:01N 26°04' W 080°03'4 7.5
2017-Nov-19 21:27N 26°06' W 080°07'0 0.3
2017-Nov-19 21:00N 26°06' W 080°07'0 0.0
2017-Nov-19 20:30N 26°06' W 080°07'0 0.0
2017-Nov-19 20:00N 26°06' W 080°07'0 0.0
2017-Nov-19 19:30N 26°06' W 080°07'0 0.0
2017-Nov-19 19:00N 26°06' W 080°07'0 0.0
2017-Nov-19 18:30N 26°06' W 080°07'0 0.0
2017-Nov-19 18:00N 26°06' W 080°07'0 0.0
2017-Nov-19 17:30N 26°06' W 080°07'0 0.0
2017-Nov-19 17:00N 26°06' W 080°07'0 0.0
2017-Nov-19 16:30N 26°06' W 080°07'0 0.0
2017-Nov-19 16:00N 26°06' W 080°07'0 0.0
2017-Nov-19 15:30N 26°06' W 080°07'0 0.0
2017-Nov-19 15:00N 26°06' W 080°07'0 0.0
2017-Nov-19 14:27N 26°06' W 080°07'0 0.0
2017-Nov-19 13:39N 26°06' W 080°07'0 0.0
2017-Nov-19 13:30N 26°06' W 080°07'0 0.0
2017-Nov-19 12:57N 26°06' W 080°07'0 0.0
2017-Nov-19 12:24N 26°06' W 080°07'0 0.0
2017-Nov-19 11:57N 26°06' W 080°07'0 0.0
2017-Nov-19 11:31N 26°06' W 080°07'1 1.5
2017-Nov-19 11:00N 26°06' W 080°07'4 8.1
2017-Nov-19 10:30N 26°05' W 080°02'713.4
2017-Nov-19 10:00N 26°00' W 079°57'917.6
2017-Nov-19 09:31N 25°53' W 079°51'1019.0
2017-Nov-19 09:01N 25°44' W 079°47'1019.2
2017-Nov-19 08:30N 25°35' W 079°44'1019.1
2017-Nov-19 08:00N 25°26' W 079°43'35116.7
2017-Nov-18 11:00N 21°12' W 075°18'38315.3 030 / 281009.010.8 26.022.029.0
2017-Nov-17 10:00N 15°24' W 072°30'17717.7 220 / 121007.010.8 27.021.029.0
2017-Nov-17 00:00N 13°06' W 070°36'117 3.2 330 / 151008.010.8 27.021.029.0
2017-Nov-15 11:00N 14°24' W 069°06'18618.6 130 / 241008.010.8 28.021.029.0
2017-Nov-15 01:00N 17°30' W 068°54'29 2.0 120 / 201008.010.8 26.023.029.0
2017-Nov-14 10:00N 17°54' W 068°36'16316.3 130 / 151009.010.8 26.022.029.0
2017-Nov-14 00:00N 20°36' W 068°54'22617.4 090 / 251011.010.8 27.021.029.0
2017-Nov-13 11:00N 22°30' W 072°24'26710.7 090 / 251012.0 26.022.029.0
2017-Nov-12 10:00N 25°30' W 076°00'18619.2 050 / 331015.010.8 26.020.030.0
2017-Nov-12 00:19N 26°13' W 079°21'619.9
2017-Nov-12 00:01N 26°11' W 079°28'1019.9
2017-Nov-11 23:31N 26°09' W 079°38'1019.9
2017-Nov-11 23:01N 26°07' W 079°49'918.4
2017-Nov-11 22:30N 26°06' W 079°59'510.9
2017-Nov-11 22:00N 26°06' W 080°05'2 3.1
2017-Nov-11 21:29N 26°06' W 080°07'0 0.0
2017-Nov-11 20:59N 26°06' W 080°07'0 0.0
2017-Nov-11 20:29N 26°06' W 080°07'0 0.0
2017-Nov-11 19:50N 26°06' W 080°07'0 0.0
2017-Nov-11 19:26N 26°06' W 080°07'0 0.0
2017-Nov-11 18:56N 26°06' W 080°07'0 0.0
2017-Nov-11 18:26N 26°06' W 080°07'0 0.0
2017-Nov-11 17:56N 26°06' W 080°07'0 0.0
2017-Nov-11 17:26N 26°06' W 080°07'0 0.0
2017-Nov-11 16:56N 26°06' W 080°07'0 0.0
2017-Nov-11 16:26N 26°06' W 080°07'0 0.0
2017-Nov-11 15:59N 26°06' W 080°07'0 0.0
2017-Nov-11 15:29N 26°06' W 080°07'0 0.0
2017-Nov-11 14:59N 26°06' W 080°07'0 0.0
2017-Nov-11 14:29N 26°06' W 080°07'0 0.0
2017-Nov-11 13:59N 26°06' W 080°07'0 0.0
2017-Nov-11 13:29N 26°06' W 080°07'0 0.0
2017-Nov-11 12:59N 26°06' W 080°07'0 0.0
2017-Nov-11 12:29N 26°06' W 080°07'0 0.0
2017-Nov-11 11:59N 26°06' W 080°07'0 0.0
2017-Nov-11 11:29N 26°06' W 080°07'0 0.2
2017-Nov-11 11:00N 26°06' W 080°07'2 3.2
2017-Nov-11 10:30N 26°06' W 080°05'510.6
2017-Nov-11 10:01N 26°03' W 080°00'918.3
2017-Nov-11 09:31N 25°54' W 079°57'1019.4
2017-Nov-11 09:00N 25°45' W 079°54'1020.8
2017-Nov-11 08:30N 25°35' W 079°51'1121.1
2017-Nov-11 08:00N 25°25' W 079°47'1020.7
2017-Nov-11 07:30N 25°15' W 079°44'3319.5
2017-Nov-11 05:49N 24°43' W 079°33'718.5
2017-Nov-11 05:27N 24°37' W 079°31'818.1
2017-Nov-11 04:59N 24°29' W 079°28'917.9
2017-Nov-11 04:30N 24°21' W 079°25'5318.4
2017-Nov-11 01:36N 23°30' W 079°07'  
Track history (hours):
 
Tides and Currents Weather Stations Pressure Air Temp Water Temp Dewpoint Dewpoint Depression Visibility Wind Speed Wind Dir Waves Ship Positions

Carnival Conquest

Operator: Carnival Cruise Lines

Last reported at 2017-Nov-21 01:00 UTC. Time now 2017-Nov-23 00:22 UTC.
Position N 21°00' W 074°48'.

Type: Passenger vessel. MMSI: 357657000.

Wind from 050 at 24 knots

Barometer 1012.0 mb
Air temperature 27.0 ° C
Visibility: greater than 10.8 NM
Dewpoint 20.0 ° C
Water temperature 30.0 ° C

Date/timePositionNaut miles runAvg speedWind from/ knotsBaromVisibWave heightAir tempDewpointWater temp
2017-Nov-21 01:00N 21°00' W 074°48'22217.1 050 / 241012.010.8 27.020.030.0
2017-Nov-20 12:00N 22°36' W 078°24'18816.1 350 / 231014.010.8 24.013.030.0
2017-Nov-20 00:22N 25°30' W 079°40'617.5
2017-Nov-20 00:00N 25°36' W 079°42'917.4
2017-Nov-19 23:30N 25°44' W 079°47'917.7
2017-Nov-19 23:01N 25°51' W 079°53'816.8
2017-Nov-19 22:31N 25°58' W 079°57'815.9
2017-Nov-19 22:01N 26°04' W 080°03'4 7.5
2017-Nov-19 21:27N 26°06' W 080°07'0 0.3
2017-Nov-19 21:00N 26°06' W 080°07'0 0.0
2017-Nov-19 20:30N 26°06' W 080°07'0 0.0
2017-Nov-19 20:00N 26°06' W 080°07'0 0.0
2017-Nov-19 19:30N 26°06' W 080°07'0 0.0
2017-Nov-19 19:00N 26°06' W 080°07'0 0.0
2017-Nov-19 18:30N 26°06' W 080°07'0 0.0
2017-Nov-19 18:00N 26°06' W 080°07'0 0.0
2017-Nov-19 17:30N 26°06' W 080°07'0 0.0
2017-Nov-19 17:00N 26°06' W 080°07'0 0.0
2017-Nov-19 16:30N 26°06' W 080°07'0 0.0
2017-Nov-19 16:00N 26°06' W 080°07'0 0.0
2017-Nov-19 15:30N 26°06' W 080°07'0 0.0
2017-Nov-19 15:00N 26°06' W 080°07'0 0.0
2017-Nov-19 14:27N 26°06' W 080°07'0 0.0
2017-Nov-19 13:39N 26°06' W 080°07'0 0.0
2017-Nov-19 13:30N 26°06' W 080°07'0 0.0
2017-Nov-19 12:57N 26°06' W 080°07'0 0.0
2017-Nov-19 12:24N 26°06' W 080°07'0 0.0
2017-Nov-19 11:57N 26°06' W 080°07'0 0.0
2017-Nov-19 11:31N 26°06' W 080°07'1 1.5
2017-Nov-19 11:00N 26°06' W 080°07'4 8.1
2017-Nov-19 10:30N 26°05' W 080°02'713.4
2017-Nov-19 10:00N 26°00' W 079°57'917.6
2017-Nov-19 09:31N 25°53' W 079°51'1019.0
2017-Nov-19 09:01N 25°44' W 079°47'1019.2
2017-Nov-19 08:30N 25°35' W 079°44'1019.1
2017-Nov-19 08:00N 25°26' W 079°43'35116.7
2017-Nov-18 11:00N 21°12' W 075°18'38315.3 030 / 281009.010.8 26.022.029.0
2017-Nov-17 10:00N 15°24' W 072°30'17717.7 220 / 121007.010.8 27.021.029.0
2017-Nov-17 00:00N 13°06' W 070°36'117 3.2 330 / 151008.010.8 27.021.029.0
2017-Nov-15 11:00N 14°24' W 069°06'18618.6 130 / 241008.010.8 28.021.029.0
2017-Nov-15 01:00N 17°30' W 068°54'29 2.0 120 / 201008.010.8 26.023.029.0
2017-Nov-14 10:00N 17°54' W 068°36'16316.3 130 / 151009.010.8 26.022.029.0
2017-Nov-14 00:00N 20°36' W 068°54'22617.4 090 / 251011.010.8 27.021.029.0
2017-Nov-13 11:00N 22°30' W 072°24'26710.7 090 / 251012.0 26.022.029.0
2017-Nov-12 10:00N 25°30' W 076°00'18619.2 050 / 331015.010.8 26.020.030.0
2017-Nov-12 00:19N 26°13' W 079°21'619.9
2017-Nov-12 00:01N 26°11' W 079°28'1019.9
2017-Nov-11 23:31N 26°09' W 079°38'1019.9
2017-Nov-11 23:01N 26°07' W 079°49'918.4
2017-Nov-11 22:30N 26°06' W 079°59'510.9
2017-Nov-11 22:00N 26°06' W 080°05'2 3.1
2017-Nov-11 21:29N 26°06' W 080°07'0 0.0
2017-Nov-11 20:59N 26°06' W 080°07'0 0.0
2017-Nov-11 20:29N 26°06' W 080°07'0 0.0
2017-Nov-11 19:50N 26°06' W 080°07'0 0.0
2017-Nov-11 19:26N 26°06' W 080°07'0 0.0
2017-Nov-11 18:56N 26°06' W 080°07'0 0.0
2017-Nov-11 18:26N 26°06' W 080°07'0 0.0
2017-Nov-11 17:56N 26°06' W 080°07'0 0.0
2017-Nov-11 17:26N 26°06' W 080°07'0 0.0
2017-Nov-11 16:56N 26°06' W 080°07'0 0.0
2017-Nov-11 16:26N 26°06' W 080°07'0 0.0
2017-Nov-11 15:59N 26°06' W 080°07'0 0.0
2017-Nov-11 15:29N 26°06' W 080°07'0 0.0
2017-Nov-11 14:59N 26°06' W 080°07'0 0.0
2017-Nov-11 14:29N 26°06' W 080°07'0 0.0
2017-Nov-11 13:59N 26°06' W 080°07'0 0.0
2017-Nov-11 13:29N 26°06' W 080°07'0 0.0
2017-Nov-11 12:59N 26°06' W 080°07'0 0.0
2017-Nov-11 12:29N 26°06' W 080°07'0 0.0
2017-Nov-11 11:59N 26°06' W 080°07'0 0.0
2017-Nov-11 11:29N 26°06' W 080°07'0 0.2
2017-Nov-11 11:00N 26°06' W 080°07'2 3.2
2017-Nov-11 10:30N 26°06' W 080°05'510.6
2017-Nov-11 10:01N 26°03' W 080°00'918.3
2017-Nov-11 09:31N 25°54' W 079°57'1019.4
2017-Nov-11 09:00N 25°45' W 079°54'1020.8
2017-Nov-11 08:30N 25°35' W 079°51'1121.1
2017-Nov-11 08:00N 25°25' W 079°47'1020.7
2017-Nov-11 07:30N 25°15' W 079°44'3319.5
2017-Nov-11 05:49N 24°43' W 079°33'718.5
2017-Nov-11 05:27N 24°37' W 079°31'818.1
2017-Nov-11 04:59N 24°29' W 079°28'917.9
2017-Nov-11 04:30N 24°21' W 079°25'5318.4
2017-Nov-11 01:36N 23°30' W 079°07'  

Dump ship's entire track history